Point Of Rocks, Maryland
Current Conditions -  °F | °C
As of 4:45 PM on Friday 28 Nov 2014 (Local Time) from KFDK Reporting Station
Scattered Clouds Scattered Clouds  
Wind Chill: 30°   Ceiling: Unl
Heat Index: 36°   Visibility: 10mi
Dew Point: 12°   Wind: 7mph
Humidity: 38%   Direction: 300°WNW
Pressure: 30.29"   Gusts: NA
Location:  39.28°N, 77.54°W
Report Text: KFDK 282145Z 30006KT 10SM SCT055 02/M11 A3029
Loading
Personal Weather Stations






























Interactive Weather Map New forecast layout! Learn more

10-Day Weather Forecast

Advertisements
Track Severe Weather on mobile